sensor_id;sensor_type;location;lat;lon;timestamp;pressure;altitude;pressure_sealevel;temperature;humidity
43745;BME280;29359;53.048;8.732;2023-05-21T00:01:22;102126.06;;;14.63;67.17
43745;BME280;29359;53.048;8.732;2023-05-21T00:03:24;102120.81;;;14.60;67.08
43745;BME280;29359;53.048;8.732;2023-05-21T00:05:27;102117.41;;;14.55;67.40
43745;BME280;29359;53.048;8.732;2023-05-21T00:07:29;102118.34;;;14.53;67.48
43745;BME280;29359;53.048;8.732;2023-05-21T00:09:31;102104.22;;;14.51;67.20
43745;BME280;29359;53.048;8.732;2023-05-21T00:11:33;102118.44;;;14.50;67.81
43745;BME280;29359;53.048;8.732;2023-05-21T00:13:34;102110.53;;;14.47;67.25
43745;BME280;29359;53.048;8.732;2023-05-21T00:15:36;102109.69;;;14.44;67.34
43745;BME280;29359;53.048;8.732;2023-05-21T00:17:38;102111.56;;;14.39;67.55
43745;BME280;29359;53.048;8.732;2023-05-21T00:19:40;102114.25;;;14.38;67.57
43745;BME280;29359;53.048;8.732;2023-05-21T00:21:42;102106.34;;;14.35;67.39
43745;BME280;29359;53.048;8.732;2023-05-21T00:23:46;102106.44;;;14.32;67.38
43745;BME280;29359;53.048;8.732;2023-05-21T00:25:48;102107.38;;;14.28;67.48
43745;BME280;29359;53.048;8.732;2023-05-21T00:27:50;102103.00;;;14.25;67.85
43745;BME280;29359;53.048;8.732;2023-05-21T00:29:52;102101.31;;;14.23;67.29
43745;BME280;29359;53.048;8.732;2023-05-21T00:31:53;102108.41;;;14.22;67.73
43745;BME280;29359;53.048;8.732;2023-05-21T00:33:56;102091.66;;;14.19;67.75
43745;BME280;29359;53.048;8.732;2023-05-21T00:35:58;102098.78;;;14.17;67.87
43745;BME280;29359;53.048;8.732;2023-05-21T00:37:59;102100.56;;;14.16;68.04
43745;BME280;29359;53.048;8.732;2023-05-21T00:40:01;102099.75;;;14.14;67.79
43745;BME280;29359;53.048;8.732;2023-05-21T00:42:05;102091.81;;;14.12;67.75
43745;BME280;29359;53.048;8.732;2023-05-21T00:44:08;102096.25;;;14.12;67.79
43745;BME280;29359;53.048;8.732;2023-05-21T00:46:13;102101.63;;;14.09;67.86
43745;BME280;29359;53.048;8.732;2023-05-21T00:48:16;102091.97;;;14.05;67.52
43745;BME280;29359;53.048;8.732;2023-05-21T00:50:18;102087.63;;;14.02;67.38
43745;BME280;29359;53.048;8.732;2023-05-21T00:52:20;102091.16;;;14.03;67.51
43745;BME280;29359;53.048;8.732;2023-05-21T00:54:23;102088.59;;;13.98;68.10
43745;BME280;29359;53.048;8.732;2023-05-21T00:56:26;102086.88;;;13.96;67.72
43745;BME280;29359;53.048;8.732;2023-05-21T00:58:28;102086.03;;;13.94;67.97
43745;BME280;29359;53.048;8.732;2023-05-21T01:00:34;102079.84;;;13.93;67.70
43745;BME280;29359;53.048;8.732;2023-05-21T01:02:36;102080.84;;;13.89;67.87
43745;BME280;29359;53.048;8.732;2023-05-21T01:04:38;102071.13;;;13.88;67.84
43745;BME280;29359;53.048;8.732;2023-05-21T01:06:40;102072.03;;;13.86;67.69
43745;BME280;29359;53.048;8.732;2023-05-21T01:08:43;102074.72;;;13.84;67.89
43745;BME280;29359;53.048;8.732;2023-05-21T01:10:44;102070.31;;;13.83;67.61
43745;BME280;29359;53.048;8.732;2023-05-21T01:12:46;102071.31;;;13.79;67.62
43745;BME280;29359;53.048;8.732;2023-05-21T01:14:49;102066.00;;;13.79;67.94
43745;BME280;29359;53.048;8.732;2023-05-21T01:16:52;102074.94;;;13.75;67.95
43745;BME280;29359;53.048;8.732;2023-05-21T01:18:54;102067.88;;;13.74;68.01
43745;BME280;29359;53.048;8.732;2023-05-21T01:20:56;102068.84;;;13.70;67.75
43745;BME280;29359;53.048;8.732;2023-05-21T01:22:57;102069.00;;;13.62;68.07
43745;BME280;29359;53.048;8.732;2023-05-21T01:24:59;102068.16;;;13.62;67.83
43745;BME280;29359;53.048;8.732;2023-05-21T01:27:03;102078.75;;;13.62;68.11
43745;BME280;29359;53.048;8.732;2023-05-21T01:29:08;102069.09;;;13.59;68.08
43745;BME280;29359;53.048;8.732;2023-05-21T01:31:25;102067.41;;;13.55;67.81
43745;BME280;29359;53.048;8.732;2023-05-21T01:33:42;102066.53;;;13.55;68.12
43745;BME280;29359;53.048;8.732;2023-05-21T01:35:59;102066.59;;;13.51;68.28
43745;BME280;29359;53.048;8.732;2023-05-21T01:40:10;102065.81;;;13.46;68.46
43745;BME280;29359;53.048;8.732;2023-05-21T01:42:15;102064.09;;;13.42;67.97
43745;BME280;29359;53.048;8.732;2023-05-21T01:44:18;102063.31;;;13.37;68.14
43745;BME280;29359;53.048;8.732;2023-05-21T01:46:25;102059.81;;;13.35;68.41
43745;BME280;29359;53.048;8.732;2023-05-21T01:48:28;102051.88;;;13.35;68.12
43745;BME280;29359;53.048;8.732;2023-05-21T01:50:30;102054.59;;;13.32;68.36
43745;BME280;29359;53.048;8.732;2023-05-21T01:52:32;102047.53;;;13.31;68.28
43745;BME280;29359;53.048;8.732;2023-05-21T01:54:34;102043.16;;;13.29;68.45
43745;BME280;29359;53.048;8.732;2023-05-21T01:56:36;102044.97;;;13.27;68.43
43745;BME280;29359;53.048;8.732;2023-05-21T01:58:38;102046.81;;;13.23;68.10
43745;BME280;29359;53.048;8.732;2023-05-21T02:00:40;102049.50;;;13.22;68.34
43745;BME280;29359;53.048;8.732;2023-05-21T02:02:41;102057.53;;;13.18;68.24
43745;BME280;29359;53.048;8.732;2023-05-21T02:04:43;102046.03;;;13.16;68.52
43745;BME280;29359;53.048;8.732;2023-05-21T02:06:46;102053.13;;;13.17;68.59
43745;BME280;29359;53.048;8.732;2023-05-21T02:08:48;102050.50;;;13.14;67.92
43745;BME280;29359;53.048;8.732;2023-05-21T02:10:49;102053.13;;;13.16;68.32
43745;BME280;29359;53.048;8.732;2023-05-21T02:12:51;102046.97;;;13.14;68.26
43745;BME280;29359;53.048;8.732;2023-05-21T02:14:53;102043.44;;;13.13;68.09
43745;BME280;29359;53.048;8.732;2023-05-21T02:16:56;102042.56;;;13.13;68.59
43745;BME280;29359;53.048;8.732;2023-05-21T02:18:58;102046.16;;;13.10;68.07
43745;BME280;29359;53.048;8.732;2023-05-21T02:21:00;102047.94;;;13.10;68.18
43745;BME280;29359;53.048;8.732;2023-05-21T02:23:02;102040.91;;;13.07;68.00
43745;BME280;29359;53.048;8.732;2023-05-21T02:25:05;102042.66;;;13.08;68.20
43745;BME280;29359;53.048;8.732;2023-05-21T02:27:08;102047.97;;;13.08;67.84
43745;BME280;29359;53.048;8.732;2023-05-21T02:29:10;102035.59;;;13.07;68.24
43745;BME280;29359;53.048;8.732;2023-05-21T02:31:12;102033.84;;;13.08;68.04
43745;BME280;29359;53.048;8.732;2023-05-21T02:33:15;102039.13;;;13.08;68.14
43745;BME280;29359;53.048;8.732;2023-05-21T02:35:16;102037.38;;;13.07;68.05
43745;BME280;29359;53.048;8.732;2023-05-21T02:37:18;102035.69;;;13.03;67.82
43745;BME280;29359;53.048;8.732;2023-05-21T02:39:20;102032.19;;;13.02;67.94
43745;BME280;29359;53.048;8.732;2023-05-21T02:41:22;102033.94;;;13.02;67.91
43745;BME280;29359;53.048;8.732;2023-05-21T02:43:23;102028.66;;;13.00;67.85
43745;BME280;29359;53.048;8.732;2023-05-21T02:45:25;102030.44;;;13.00;67.74
43745;BME280;29359;53.048;8.732;2023-05-21T02:47:26;102029.56;;;12.99;68.09
43745;BME280;29359;53.048;8.732;2023-05-21T02:49:28;102036.63;;;12.99;67.51
43745;BME280;29359;53.048;8.732;2023-05-21T02:51:29;102036.66;;;12.97;67.59
43745;BME280;29359;53.048;8.732;2023-05-21T02:53:31;102046.38;;;12.97;67.90
43745;BME280;29359;53.048;8.732;2023-05-21T02:55:33;102045.50;;;12.96;68.33
43745;BME280;29359;53.048;8.732;2023-05-21T02:57:35;102043.81;;;12.92;67.97
43745;BME280;29359;53.048;8.732;2023-05-21T02:59:37;102043.91;;;12.87;68.28
43745;BME280;29359;53.048;8.732;2023-05-21T03:01:38;102047.56;;;12.82;68.46
43745;BME280;29359;53.048;8.732;2023-05-21T03:03:41;102044.09;;;12.78;68.68
43745;BME280;29359;53.048;8.732;2023-05-21T03:05:43;102028.34;;;12.69;68.98
43745;BME280;29359;53.048;8.732;2023-05-21T03:07:46;102027.63;;;12.61;68.96
43745;BME280;29359;53.048;8.732;2023-05-21T03:09:47;102020.66;;;12.54;69.34
43745;BME280;29359;53.048;8.732;2023-05-21T03:11:49;102023.47;;;12.45;69.90
43745;BME280;29359;53.048;8.732;2023-05-21T03:13:51;102022.69;;;12.38;69.79
43745;BME280;29359;53.048;8.732;2023-05-21T03:15:52;102026.31;;;12.33;70.57
43745;BME280;29359;53.048;8.732;2023-05-21T03:17:57;102022.03;;;12.25;70.90
43745;BME280;29359;53.048;8.732;2023-05-21T03:19:58;102015.00;;;12.24;70.93
43745;BME280;29359;53.048;8.732;2023-05-21T03:22:01;102011.50;;;12.22;70.75
43745;BME280;29359;53.048;8.732;2023-05-21T03:24:04;102015.97;;;12.19;70.54
43745;BME280;29359;53.048;8.732;2023-05-21T03:26:06;102011.63;;;12.15;70.91
43745;BME280;29359;53.048;8.732;2023-05-21T03:28:08;102011.63;;;12.12;71.00
43745;BME280;29359;53.048;8.732;2023-05-21T03:30:10;102010.75;;;12.11;70.87
43745;BME280;29359;53.048;8.732;2023-05-21T03:32:12;102013.38;;;12.13;70.79
43745;BME280;29359;53.048;8.732;2023-05-21T03:34:14;102011.63;;;12.12;70.39
43745;BME280;29359;53.048;8.732;2023-05-21T03:36:17;102015.22;;;12.08;70.68
43745;BME280;29359;53.048;8.732;2023-05-21T03:38:18;102017.88;;;12.08;70.83
43745;BME280;29359;53.048;8.732;2023-05-21T03:40:20;102018.72;;;12.10;70.61
43745;BME280;29359;53.048;8.732;2023-05-21T03:42:22;102012.63;;;12.05;70.82
43745;BME280;29359;53.048;8.732;2023-05-21T03:44:23;102012.66;;;12.03;71.05
43745;BME280;29359;53.048;8.732;2023-05-21T03:46:25;102010.88;;;12.04;71.33
43745;BME280;29359;53.048;8.732;2023-05-21T03:48:28;102021.44;;;12.05;71.09
43745;BME280;29359;53.048;8.732;2023-05-21T03:50:29;102009.94;;;12.08;70.67
43745;BME280;29359;53.048;8.732;2023-05-21T03:52:31;102012.56;;;12.09;70.46
43745;BME280;29359;53.048;8.732;2023-05-21T03:54:33;102009.00;;;12.10;69.88
43745;BME280;29359;53.048;8.732;2023-05-21T03:56:34;102009.00;;;12.10;70.42
43745;BME280;29359;53.048;8.732;2023-05-21T03:58:36;102024.00;;;12.11;70.17
43745;BME280;29359;53.048;8.732;2023-05-21T04:00:37;102009.91;;;12.09;69.81
43745;BME280;29359;53.048;8.732;2023-05-21T04:02:39;102015.19;;;12.11;69.77
43745;BME280;29359;53.048;8.732;2023-05-21T04:04:40;102011.69;;;12.09;69.58
43745;BME280;29359;53.048;8.732;2023-05-21T04:06:43;102020.50;;;12.09;69.41
43745;BME280;29359;53.048;8.732;2023-05-21T04:08:45;102013.47;;;12.07;69.78
43745;BME280;29359;53.048;8.732;2023-05-21T04:10:47;102016.13;;;12.07;69.74
43745;BME280;29359;53.048;8.732;2023-05-21T04:12:48;102008.16;;;12.08;69.74
43745;BME280;29359;53.048;8.732;2023-05-21T04:14:52;102011.75;;;12.04;69.39
43745;BME280;29359;53.048;8.732;2023-05-21T04:16:54;102013.56;;;12.01;69.81
43745;BME280;29359;53.048;8.732;2023-05-21T04:18:57;102020.66;;;12.00;69.85
43745;BME280;29359;53.048;8.732;2023-05-21T04:20:58;102018.00;;;12.00;69.94
43745;BME280;29359;53.048;8.732;2023-05-21T04:23:01;102020.66;;;12.00;70.17
43745;BME280;29359;53.048;8.732;2023-05-21T04:25:03;102021.47;;;12.04;69.75
43745;BME280;29359;53.048;8.732;2023-05-21T04:27:05;102012.59;;;12.06;69.44
43745;BME280;29359;53.048;8.732;2023-05-21T04:29:07;102018.78;;;12.07;69.42
43745;BME280;29359;53.048;8.732;2023-05-21T04:31:10;102017.88;;;12.08;69.20
43745;BME280;29359;53.048;8.732;2023-05-21T04:33:13;102017.00;;;12.07;68.70
43745;BME280;29359;53.048;8.732;2023-05-21T04:35:19;102021.41;;;12.08;68.91
43745;BME280;29359;53.048;8.732;2023-05-21T04:37:20;102024.03;;;12.10;69.16
43745;BME280;29359;53.048;8.732;2023-05-21T04:39:24;102022.25;;;12.10;69.04
43745;BME280;29359;53.048;8.732;2023-05-21T04:41:26;102020.47;;;12.11;69.06
43745;BME280;29359;53.048;8.732;2023-05-21T04:43:29;102019.56;;;12.13;68.84
43745;BME280;29359;53.048;8.732;2023-05-21T04:45:30;102020.38;;;12.18;68.73
43745;BME280;29359;53.048;8.732;2023-05-21T04:47:32;102019.44;;;12.22;68.65
43745;BME280;29359;53.048;8.732;2023-05-21T04:49:36;102018.53;;;12.23;68.54
43745;BME280;29359;53.048;8.732;2023-05-21T04:51:37;102016.81;;;12.21;68.65
43745;BME280;29359;53.048;8.732;2023-05-21T04:53:39;102015.09;;;12.18;68.21
43745;BME280;29359;53.048;8.732;2023-05-21T04:55:41;102013.41;;;12.14;68.58
43745;BME280;29359;53.048;8.732;2023-05-21T04:57:42;102013.38;;;12.13;68.80
43745;BME280;29359;53.048;8.732;2023-05-21T04:59:44;102009.00;;;12.12;68.74
43745;BME280;29359;53.048;8.732;2023-05-21T05:01:47;102005.47;;;12.11;68.79
43745;BME280;29359;53.048;8.732;2023-05-21T05:03:48;102001.06;;;12.10;68.57
43745;BME280;29359;53.048;8.732;2023-05-21T05:05:50;102001.06;;;12.10;68.77
43745;BME280;29359;53.048;8.732;2023-05-21T05:07:53;102005.44;;;12.13;68.72
43745;BME280;29359;53.048;8.732;2023-05-21T05:09:54;102008.97;;;12.15;68.77
43745;BME280;29359;53.048;8.732;2023-05-21T05:11:56;101996.59;;;12.15;69.25
43745;BME280;29359;53.048;8.732;2023-05-21T05:13:57;101995.69;;;12.18;68.73
43745;BME280;29359;53.048;8.732;2023-05-21T05:15:59;101996.56;;;12.18;68.47
43745;BME280;29359;53.048;8.732;2023-05-21T05:18:01;102003.63;;;12.18;68.24
43745;BME280;29359;53.048;8.732;2023-05-21T05:20:04;101992.09;;;12.20;68.49
43745;BME280;29359;53.048;8.732;2023-05-21T05:22:06;101992.97;;;12.22;68.42
43745;BME280;29359;53.048;8.732;2023-05-21T05:24:07;101993.84;;;12.23;68.47
43745;BME280;29359;53.048;8.732;2023-05-21T05:26:09;101994.66;;;12.26;68.74
43745;BME280;29359;53.048;8.732;2023-05-21T05:28:11;101993.72;;;12.29;69.02
43745;BME280;29359;53.048;8.732;2023-05-21T05:30:12;102000.69;;;12.35;69.17
43745;BME280;29359;53.048;8.732;2023-05-21T05:32:14;101993.53;;;12.40;68.25
43745;BME280;29359;53.048;8.732;2023-05-21T05:34:16;101990.84;;;12.43;68.13
43745;BME280;29359;53.048;8.732;2023-05-21T05:36:17;101990.84;;;12.43;67.81
43745;BME280;29359;53.048;8.732;2023-05-21T05:38:19;101992.56;;;12.45;67.99
43745;BME280;29359;53.048;8.732;2023-05-21T05:40:20;101985.47;;;12.46;67.80
43745;BME280;29359;53.048;8.732;2023-05-21T05:42:22;101988.94;;;12.49;68.11
43745;BME280;29359;53.048;8.732;2023-05-21T05:44:23;101990.66;;;12.53;67.63
43745;BME280;29359;53.048;8.732;2023-05-21T05:46:25;101994.09;;;12.57;68.35
43745;BME280;29359;53.048;8.732;2023-05-21T05:48:26;101985.25;;;12.60;67.58
43745;BME280;29359;53.048;8.732;2023-05-21T05:50:28;101986.09;;;12.62;67.43
43745;BME280;29359;53.048;8.732;2023-05-21T05:52:30;101980.81;;;12.62;67.43
43745;BME280;29359;53.048;8.732;2023-05-21T05:54:31;101990.44;;;12.66;67.05
43745;BME280;29359;53.048;8.732;2023-05-21T05:56:33;101978.00;;;12.69;67.20
43745;BME280;29359;53.048;8.732;2023-05-21T05:58:34;101985.00;;;12.73;67.39
43745;BME280;29359;53.048;8.732;2023-05-21T06:00:36;101981.38;;;12.77;66.68
43745;BME280;29359;53.048;8.732;2023-05-21T06:02:37;101982.22;;;12.81;67.33
43745;BME280;29359;53.048;8.732;2023-05-21T06:04:39;101986.56;;;12.83;67.18
43745;BME280;29359;53.048;8.732;2023-05-21T06:06:41;101982.97;;;12.87;67.77
43745;BME280;29359;53.048;8.732;2023-05-21T06:08:42;101982.03;;;12.90;66.87
43745;BME280;29359;53.048;8.732;2023-05-21T06:10:44;101981.94;;;12.95;66.53
43745;BME280;29359;53.048;8.732;2023-05-21T06:12:45;101979.22;;;12.98;66.45
43745;BME280;29359;53.048;8.732;2023-05-21T06:14:47;101984.50;;;13.01;66.71
43745;BME280;29359;53.048;8.732;2023-05-21T06:16:49;101977.28;;;13.07;68.05
43745;BME280;29359;53.048;8.732;2023-05-21T06:18:50;101970.06;;;13.14;67.41
43745;BME280;29359;53.048;8.732;2023-05-21T06:20:52;101975.28;;;13.20;67.73
43745;BME280;29359;53.048;8.732;2023-05-21T06:22:54;101974.25;;;13.27;67.54
43745;BME280;29359;53.048;8.732;2023-05-21T06:24:55;101969.72;;;13.32;67.60
43745;BME280;29359;53.048;8.732;2023-05-21T06:26:57;101978.41;;;13.39;67.28
43745;BME280;29359;53.048;8.732;2023-05-21T06:28:58;101980.88;;;13.48;68.64
43745;BME280;29359;53.048;8.732;2023-05-21T06:31:00;101981.59;;;13.56;68.93
43745;BME280;29359;53.048;8.732;2023-05-21T06:33:02;101977.84;;;13.65;67.44
43745;BME280;29359;53.048;8.732;2023-05-21T06:35:04;101980.50;;;13.65;65.37
43745;BME280;29359;53.048;8.732;2023-05-21T06:37:06;101977.78;;;13.68;65.20
43745;BME280;29359;53.048;8.732;2023-05-21T06:39:07;101971.50;;;13.72;64.94
43745;BME280;29359;53.048;8.732;2023-05-21T06:41:09;101979.31;;;13.78;65.49
43745;BME280;29359;53.048;8.732;2023-05-21T06:43:10;101977.41;;;13.83;65.14
43745;BME280;29359;53.048;8.732;2023-05-21T06:45:12;101972.91;;;13.88;64.63
43745;BME280;29359;53.048;8.732;2023-05-21T06:47:14;101971.88;;;13.94;65.24
43745;BME280;29359;53.048;8.732;2023-05-21T06:49:15;101972.66;;;13.99;65.38
43745;BME280;29359;53.048;8.732;2023-05-21T06:51:17;101975.16;;;14.05;64.89
43745;BME280;29359;53.048;8.732;2023-05-21T06:53:18;101974.13;;;14.10;65.27
43745;BME280;29359;53.048;8.732;2023-05-21T06:55:20;101965.13;;;14.16;64.91
43745;BME280;29359;53.048;8.732;2023-05-21T06:57:22;101967.50;;;14.27;65.55
43745;BME280;29359;53.048;8.732;2023-05-21T06:59:23;101973.44;;;14.38;66.81
43745;BME280;29359;53.048;8.732;2023-05-21T07:01:25;101972.41;;;14.45;64.94
43745;BME280;29359;53.048;8.732;2023-05-21T07:03:26;101965.19;;;14.50;65.36
43745;BME280;29359;53.048;8.732;2023-05-21T07:05:28;101968.66;;;14.52;64.99
43745;BME280;29359;53.048;8.732;2023-05-21T07:07:30;101961.53;;;14.54;64.30
43745;BME280;29359;53.048;8.732;2023-05-21T07:09:31;101966.72;;;14.59;64.41
43745;BME280;29359;53.048;8.732;2023-05-21T07:11:33;101953.38;;;14.60;63.97
43745;BME280;29359;53.048;8.732;2023-05-21T07:13:35;101953.25;;;14.65;64.54
43745;BME280;29359;53.048;8.732;2023-05-21T07:15:36;101954.06;;;14.68;64.40
43745;BME280;29359;53.048;8.732;2023-05-21T07:17:38;101953.97;;;14.71;64.72
43745;BME280;29359;53.048;8.732;2023-05-21T07:19:40;101958.31;;;14.74;64.65
43745;BME280;29359;53.048;8.732;2023-05-21T07:21:42;101945.91;;;14.76;65.00
43745;BME280;29359;53.048;8.732;2023-05-21T07:23:43;101950.16;;;14.82;66.23
43745;BME280;29359;53.048;8.732;2023-05-21T07:25:45;101947.31;;;14.88;65.47
43745;BME280;29359;53.048;8.732;2023-05-21T07:27:46;101949.81;;;14.94;64.88
43745;BME280;29359;53.048;8.732;2023-05-21T07:29:48;101947.88;;;14.99;64.61
43745;BME280;29359;53.048;8.732;2023-05-21T07:31:49;101941.56;;;15.03;64.19
43745;BME280;29359;53.048;8.732;2023-05-21T07:33:51;101942.38;;;15.05;64.17
43745;BME280;29359;53.048;8.732;2023-05-21T07:35:52;101945.88;;;15.07;64.18
43745;BME280;29359;53.048;8.732;2023-05-21T07:37:54;101946.66;;;15.11;64.37
43745;BME280;29359;53.048;8.732;2023-05-21T07:39:56;101948.31;;;15.15;64.20
43745;BME280;29359;53.048;8.732;2023-05-21T07:41:58;101949.03;;;15.21;65.36
43745;BME280;29359;53.048;8.732;2023-05-21T07:44:00;101940.81;;;15.29;64.98
43745;BME280;29359;53.048;8.732;2023-05-21T07:46:02;101943.25;;;15.36;65.03
43745;BME280;29359;53.048;8.732;2023-05-21T07:48:04;101943.00;;;15.44;64.67
43745;BME280;29359;53.048;8.732;2023-05-21T07:50:05;101948.13;;;15.50;64.73
43745;BME280;29359;53.048;8.732;2023-05-21T07:52:07;101943.63;;;15.52;63.78
43745;BME280;29359;53.048;8.732;2023-05-21T07:54:09;101940.16;;;15.50;64.05
43745;BME280;29359;53.048;8.732;2023-05-21T07:56:11;101942.75;;;15.52;64.40
43745;BME280;29359;53.048;8.732;2023-05-21T07:58:16;101939.19;;;15.53;64.21
43745;BME280;29359;53.048;8.732;2023-05-21T08:00:22;101932.81;;;15.58;64.81
43745;BME280;29359;53.048;8.732;2023-05-21T08:02:24;101933.63;;;15.62;64.02
43745;BME280;29359;53.048;8.732;2023-05-21T08:04:26;101926.41;;;15.65;64.22
43745;BME280;29359;53.048;8.732;2023-05-21T08:06:28;101936.91;;;15.70;64.47
43745;BME280;29359;53.048;8.732;2023-05-21T08:08:29;101934.00;;;15.78;64.01
43745;BME280;29359;53.048;8.732;2023-05-21T08:10:31;101939.94;;;15.86;63.68
43745;BME280;29359;53.048;8.732;2023-05-21T08:12:33;101934.38;;;15.93;63.60
43745;BME280;29359;53.048;8.732;2023-05-21T08:14:34;101935.09;;;15.98;63.38
43745;BME280;29359;53.048;8.732;2023-05-21T08:16:36;101929.66;;;16.01;63.44
43745;BME280;29359;53.048;8.732;2023-05-21T08:18:39;101939.22;;;16.09;63.56
43745;BME280;29359;53.048;8.732;2023-05-21T08:20:41;101936.28;;;16.16;63.51
43745;BME280;29359;53.048;8.732;2023-05-21T08:22:43;101936.13;;;16.21;63.26
43745;BME280;29359;53.048;8.732;2023-05-21T08:24:44;101934.22;;;16.24;63.30
43745;BME280;29359;53.048;8.732;2023-05-21T08:26:46;101935.88;;;16.28;63.43
43745;BME280;29359;53.048;8.732;2023-05-21T08:28:49;101931.31;;;16.32;63.55
43745;BME280;29359;53.048;8.732;2023-05-21T08:30:51;101932.78;;;16.41;64.28
43745;BME280;29359;53.048;8.732;2023-05-21T08:32:53;101943.31;;;16.44;63.44
43745;BME280;29359;53.048;8.732;2023-05-21T08:34:55;101939.66;;;16.48;64.03
43745;BME280;29359;53.048;8.732;2023-05-21T08:36:58;101937.63;;;16.54;63.92
43745;BME280;29359;53.048;8.732;2023-05-21T08:38:59;101940.97;;;16.61;63.72
43745;BME280;29359;53.048;8.732;2023-05-21T08:41:03;101937.22;;;16.67;63.44
43745;BME280;29359;53.048;8.732;2023-05-21T08:43:06;101939.63;;;16.74;63.29
43745;BME280;29359;53.048;8.732;2023-05-21T08:45:16;101935.03;;;16.78;63.28
43745;BME280;29359;53.048;8.732;2023-05-21T08:47:22;101932.97;;;16.86;63.11
43745;BME280;29359;53.048;8.732;2023-05-21T08:49:29;101930.84;;;16.95;62.65
43745;BME280;29359;53.048;8.732;2023-05-21T08:51:34;101936.81;;;17.02;63.04
43745;BME280;29359;53.048;8.732;2023-05-21T08:53:36;101929.34;;;17.12;62.65
43745;BME280;29359;53.048;8.732;2023-05-21T08:55:40;101932.69;;;17.17;62.71
43745;BME280;29359;53.048;8.732;2023-05-21T08:57:43;101929.84;;;17.21;62.74
43745;BME280;29359;53.048;8.732;2023-05-21T08:59:44;101925.44;;;17.20;62.72
43745;BME280;29359;53.048;8.732;2023-05-21T09:01:47;101927.19;;;17.21;62.93
43745;BME280;29359;53.048;8.732;2023-05-21T09:03:51;101922.53;;;17.26;62.53
43745;BME280;29359;53.048;8.732;2023-05-21T09:05:59;101920.56;;;17.32;63.11
43745;BME280;29359;53.048;8.732;2023-05-21T09:10:16;101920.91;;;17.46;62.55
43745;BME280;29359;53.048;8.732;2023-05-21T09:12:18;101915.38;;;17.50;62.55
43745;BME280;29359;53.048;8.732;2023-05-21T09:14:21;101911.59;;;17.56;62.46
43745;BME280;29359;53.048;8.732;2023-05-21T09:16:23;101913.03;;;17.65;62.25
43745;BME280;29359;53.048;8.732;2023-05-21T09:18:25;101908.41;;;17.70;62.17
43745;BME280;29359;53.048;8.732;2023-05-21T09:20:28;101910.59;;;17.82;62.08
43745;BME280;29359;53.048;8.732;2023-05-21T09:22:29;101908.47;;;17.90;62.33
43745;BME280;29359;53.048;8.732;2023-05-21T09:24:31;101908.94;;;18.00;61.82
43745;BME280;29359;53.048;8.732;2023-05-21T09:26:36;101923.47;;;18.14;62.33
43745;BME280;29359;53.048;8.732;2023-05-21T09:28:38;101912.47;;;18.22;61.08
43745;BME280;29359;53.048;8.732;2023-05-21T09:30:46;101906.59;;;18.34;61.05
43745;BME280;29359;53.048;8.732;2023-05-21T09:32:54;101907.13;;;18.42;60.58
43745;BME280;29359;53.048;8.732;2023-05-21T09:35:05;101909.31;;;18.53;61.00
43745;BME280;29359;53.048;8.732;2023-05-21T09:37:08;101909.91;;;18.60;61.12
43745;BME280;29359;53.048;8.732;2023-05-21T09:39:27;101901.41;;;18.72;60.61
43745;BME280;29359;53.048;8.732;2023-05-21T09:41:32;101910.59;;;18.85;61.15
43745;BME280;29359;53.048;8.732;2023-05-21T09:43:35;101912.91;;;18.93;60.46
43745;BME280;29359;53.048;8.732;2023-05-21T09:45:49;101912.06;;;18.92;60.14
43745;BME280;29359;53.048;8.732;2023-05-21T09:47:54;101909.44;;;18.91;60.93
43745;BME280;29359;53.048;8.732;2023-05-21T09:49:59;101911.91;;;18.95;60.72
43745;BME280;29359;53.048;8.732;2023-05-21T09:52:01;101911.91;;;18.95;61.02
43745;BME280;29359;53.048;8.732;2023-05-21T09:54:03;101904.31;;;19.05;62.02
43745;BME280;29359;53.048;8.732;2023-05-21T09:56:05;101901.31;;;19.12;60.80
43745;BME280;29359;53.048;8.732;2023-05-21T09:58:07;101900.94;;;19.20;61.02
43745;BME280;29359;53.048;8.732;2023-05-21T10:00:24;101898.69;;;19.30;61.24
43745;BME280;29359;53.048;8.732;2023-05-21T10:02:29;101899.06;;;19.41;60.71
43745;BME280;29359;53.048;8.732;2023-05-21T10:04:32;101892.34;;;19.51;60.45
43745;BME280;29359;53.048;8.732;2023-05-21T10:06:36;101889.22;;;19.60;60.39
43745;BME280;29359;53.048;8.732;2023-05-21T10:08:43;101891.22;;;19.74;60.84
43745;BME280;29359;53.048;8.732;2023-05-21T10:10:46;101887.28;;;19.81;59.79
43745;BME280;29359;53.048;8.732;2023-05-21T10:13:10;101886.97;;;19.87;59.95
43745;BME280;29359;53.048;8.732;2023-05-21T10:15:14;101887.53;;;19.94;60.20
43745;BME280;29359;53.048;8.732;2023-05-21T10:17:17;101884.81;;;19.95;59.78
43745;BME280;29359;53.048;8.732;2023-05-21T10:19:19;101886.47;;;19.98;59.94
43745;BME280;29359;53.048;8.732;2023-05-21T10:21:23;101890.88;;;19.99;59.95
43745;BME280;29359;53.048;8.732;2023-05-21T10:23:25;101880.00;;;20.02;60.09
43745;BME280;29359;53.048;8.732;2023-05-21T10:25:27;101877.78;;;20.10;60.60
43745;BME280;29359;53.048;8.732;2023-05-21T10:27:31;101879.22;;;20.17;60.75
43745;BME280;29359;53.048;8.732;2023-05-21T10:29:33;101881.31;;;20.28;60.92
43745;BME280;29359;53.048;8.732;2023-05-21T10:31:37;101880.66;;;20.42;61.92
43745;BME280;29359;53.048;8.732;2023-05-21T10:33:40;101871.19;;;20.52;62.93
43745;BME280;29359;53.048;8.732;2023-05-21T10:35:43;101873.78;;;20.53;60.05
43745;BME280;29359;53.048;8.732;2023-05-21T10:37:48;101870.84;;;20.58;60.60
43745;BME280;29359;53.048;8.732;2023-05-21T10:39:51;101873.91;;;20.67;61.77
43745;BME280;29359;53.048;8.732;2023-05-21T10:42:48;101876.00;;;20.78;60.64
43745;BME280;29359;53.048;8.732;2023-05-21T10:44:56;101867.38;;;20.89;61.46
43745;BME280;29359;53.048;8.732;2023-05-21T10:47:21;101872.41;;;20.95;60.33